Time;durP1;ratioP1;P1;durP2;ratioP2;P2;SDS_P1;SDS_P2;PMS_P1;PMS_P2;Temp;Humidity;BMP_temperature;BMP_pressure;BME280_temperature;BME280_humidity;BME280_pressure;Samples;Min_cycle;Max_cycle;Signal;HPM_P1;HPM_P2
2020/12/03 00:00:59;;;;;;;7.87;6.42;;;;;;;22.31;36.03;100530.75;1714581;81;21234;-31
2020/12/03 00:03:30;;;;;;;8.15;6.20;;;;;;;22.32;36.00;100530.26;1701262;83;21166;-31
2020/12/03 00:06:05;;;;;;;12.20;6.80;;;;;;;22.33;36.06;100528.81;1671762;83;21171;-31
2020/12/03 00:08:36;;;;;;;9.90;6.15;;;;;;;22.34;36.06;100532.34;1693520;83;21185;-31
2020/12/03 00:11:04;;;;;;;9.35;6.15;;;;;;;22.36;36.06;100535.77;1710327;83;21134;-31
2020/12/03 00:13:35;;;;;;;9.75;6.22;;;;;;;22.37;36.03;100533.48;1684252;83;21223;-31
2020/12/03 00:16:05;;;;;;;7.85;6.03;;;;;;;22.38;36.06;100532.05;1685278;81;21224;-32
2020/12/03 00:18:34;;;;;;;12.18;6.28;;;;;;;22.39;36.08;100530.20;1758023;81;21145;-31
2020/12/03 00:21:05;;;;;;;8.43;5.90;;;;;;;22.44;36.06;100533.44;1732069;81;21156;-31
2020/12/03 00:23:36;;;;;;;7.83;6.22;;;;;;;22.45;36.06;100531.14;1757927;81;21113;-31
2020/12/03 00:26:05;;;;;;;7.47;6.28;;;;;;;22.47;36.05;100531.89;1735877;80;22224;-32
2020/12/03 00:28:37;;;;;;;8.45;6.35;;;;;;;22.48;36.06;100528.72;1774300;80;21116;-31
2020/12/03 00:31:06;;;;;;;12.10;6.10;;;;;;;22.48;36.04;100516.19;1781819;80;21573;-30
2020/12/03 00:33:34;;;;;;;8.73;6.53;;;;;;;22.49;36.05;100524.59;1759598;80;21121;-31
2020/12/03 00:36:02;;;;;;;7.70;5.97;;;;;;;22.51;36.07;100522.69;1742179;81;21577;-31
2020/12/03 00:38:30;;;;;;;10.38;5.90;;;;;;;22.51;36.10;100518.66;1758722;81;21152;-30
2020/12/03 00:40:57;;;;;;;7.78;5.87;;;;;;;22.52;36.12;100517.69;1742146;81;22256;-31
2020/12/03 00:43:24;;;;;;;8.10;5.50;;;;;;;22.53;36.13;100516.73;1758739;81;21242;-31
2020/12/03 00:45:54;;;;;;;8.40;6.08;;;;;;;22.55;36.16;100516.62;1742503;81;21082;-31
2020/12/03 00:48:21;;;;;;;7.60;6.00;;;;;;;22.55;36.15;100510.77;1758724;81;21172;-31
2020/12/03 00:50:51;;;;;;;7.00;5.85;;;;;;;22.58;36.14;100511.06;1717879;81;21133;-31
2020/12/03 00:53:20;;;;;;;7.15;6.33;;;;;;;22.58;36.14;100515.08;1758677;81;21549;-31
2020/12/03 00:55:48;;;;;;;8.25;6.12;;;;;;;22.60;36.15;100512.65;1776973;80;21136;-31
2020/12/03 00:58:17;;;;;;;8.98;6.42;;;;;;;22.60;36.14;100507.29;1781809;80;21619;-31
2020/12/03 01:00:44;;;;;;;7.92;6.10;;;;;;;22.62;36.13;100512.55;1721694;82;21267;-31
2020/12/03 01:03:12;;;;;;;7.22;6.45;;;;;;;22.63;36.13;100515.13;1716998;82;22282;-31
2020/12/03 01:05:39;;;;;;;7.33;5.95;;;;;;;22.65;36.13;100510.16;1741994;82;21139;-31
2020/12/03 01:08:07;;;;;;;7.87;6.40;;;;;;;22.66;36.12;100510.51;1717057;82;21651;-31
2020/12/03 01:10:35;;;;;;;9.78;6.12;;;;;;;22.67;36.13;100510.90;1717214;82;21182;-31
2020/12/03 01:13:03;;;;;;;9.73;6.75;;;;;;;22.67;36.18;100512.23;1742297;82;21576;-31
2020/12/03 01:15:31;;;;;;;8.03;6.28;;;;;;;22.68;36.13;100505.89;1730140;80;21165;-31
2020/12/03 01:17:59;;;;;;;7.97;6.22;;;;;;;22.69;36.16;100507.62;1760586;80;21135;-31
2020/12/03 01:20:28;;;;;;;7.67;6.37;;;;;;;22.69;36.18;100503.59;1787125;80;21116;-31
2020/12/03 01:22:57;;;;;;;11.28;6.60;;;;;;;22.69;36.15;100506.28;1760529;80;21140;-31
2020/12/03 01:25:25;;;;;;;7.28;5.97;;;;;;;22.70;36.16;100503.98;1760755;80;21573;-31
2020/12/03 01:27:54;;;;;;;8.25;6.03;;;;;;;22.70;36.17;100506.66;1746480;79;21260;-31
2020/12/03 01:30:22;;;;;;;7.87;6.22;;;;;;;22.72;36.16;100498.02;1810870;79;21506;-31
2020/12/03 01:32:51;;;;;;;9.28;6.70;;;;;;;22.72;36.23;100498.02;1791125;79;21687;-32
2020/12/03 01:35:18;;;;;;;8.28;6.30;;;;;;;22.72;36.22;100491.31;1722427;82;21142;-31
2020/12/03 01:37:48;;;;;;;8.38;6.80;;;;;;;22.74;36.22;100496.08;1739786;82;21105;-31
2020/12/03 01:40:20;;;;;;;7.83;6.42;;;;;;;22.74;36.24;100496.08;1739773;82;21439;-31
2020/12/03 01:42:47;;;;;;;8.18;6.28;;;;;;;22.76;36.26;100500.85;1711778;82;21592;-31
2020/12/03 01:45:54;;;;;;;8.15;6.50;;;;;;;22.76;36.27;100500.39;1739728;82;21648;-31
2020/12/03 01:48:45;;;;;;;8.53;6.25;;;;;;;22.77;36.26;100495.88;1739186;82;21128;-32
2020/12/03 01:51:25;;;;;;;8.58;6.67;;;;;;;22.77;36.27;100491.84;1722559;80;21159;-31
2020/12/03 01:53:56;;;;;;;9.50;6.12;;;;;;;22.78;36.31;100498.94;1746107;80;21096;-31
2020/12/03 01:57:16;;;;;;;8.98;6.22;;;;;;;22.77;36.32;100497.22;1750114;82;21155;-31
2020/12/03 01:59:51;;;;;;;7.22;5.72;;;;;;;22.78;36.38;100490.89;1712489;82;21518;-32
2020/12/03 02:02:19;;;;;;;9.25;6.65;;;;;;;22.78;36.42;100496.26;1725298;82;21104;-31
2020/12/03 02:05:11;;;;;;;7.25;6.28;;;;;;;22.78;36.45;100493.58;1712665;81;21195;-31
2020/12/03 02:07:39;;;;;;;8.18;6.35;;;;;;;22.78;36.50;100487.72;1740269;82;21414;-31
2020/12/03 02:10:09;;;;;;;10.35;6.87;;;;;;;22.79;36.53;100483.20;1714833;82;21160;-31
2020/12/03 02:12:36;;;;;;;9.70;6.90;;;;;;;22.80;36.61;100490.30;1714866;82;21222;-31
2020/12/03 02:15:06;;;;;;;8.53;6.78;;;;;;;22.79;36.61;100484.55;1740368;82;21141;-31
2020/12/03 02:17:33;;;;;;;11.08;6.58;;;;;;;22.81;36.66;100498.70;1714847;82;21100;-30
2020/12/03 02:20:04;;;;;;;10.90;6.65;;;;;;;22.81;36.75;100493.34;1740315;82;22384;-31
2020/12/03 02:22:31;;;;;;;9.63;6.75;;;;;;;22.82;36.77;100495.06;1714700;82;21109;-31
2020/12/03 02:24:59;;;;;;;10.95;7.25;;;;;;;22.84;36.84;100494.47;1714934;82;21140;-31
2020/12/03 02:27:27;;;;;;;9.15;6.58;;;;;;;22.85;36.79;100499.34;1730893;82;21282;-34
2020/12/03 02:29:54;;;;;;;8.18;6.35;;;;;;;22.85;36.78;100498.88;1710791;83;21048;-30
2020/12/03 02:32:21;;;;;;;8.55;6.75;;;;;;;22.87;36.78;100496.94;1707891;82;22184;-30
2020/12/03 02:34:49;;;;;;;9.70;6.85;;;;;;;22.88;36.82;100495.98;1691298;82;21152;-31
2020/12/03 02:37:17;;;;;;;10.75;6.75;;;;;;;22.88;36.82;100495.98;1740243;82;21148;-31
2020/12/03 02:39:44;;;;;;;8.83;6.53;;;;;;;22.90;36.77;100492.70;1714819;82;21223;-30
2020/12/03 02:42:14;;;;;;;8.95;6.60;;;;;;;22.89;36.77;100493.66;1740191;82;21120;-30
2020/12/03 02:44:43;;;;;;;9.35;6.80;;;;;;;22.91;36.78;100494.40;1691239;82;21216;-32
2020/12/03 02:47:12;;;;;;;11.05;7.05;;;;;;;22.91;36.76;100498.42;1740176;82;21164;-31
2020/12/03 02:49:43;;;;;;;9.23;6.87;;;;;;;22.92;36.72;100495.28;1715320;82;21576;-31
2020/12/03 02:52:13;;;;;;;9.75;6.80;;;;;;;22.91;36.69;100489.03;1740274;82;21126;-31
2020/12/03 02:54:41;;;;;;;11.30;7.00;;;;;;;22.92;36.67;100492.10;1691629;82;21570;-31
2020/12/03 02:57:10;;;;;;;12.55;7.58;;;;;;;22.93;36.64;100489.81;1714958;82;21589;-31
2020/12/03 02:59:37;;;;;;;9.40;7.37;;;;;;;22.95;36.66;100490.55;1715041;82;21513;-31
2020/12/03 03:02:05;;;;;;;9.13;7.12;;;;;;;22.95;36.66;100494.58;1733582;82;21666;-31
2020/12/03 03:04:33;;;;;;;11.48;7.65;;;;;;;22.94;36.60;100480.77;1735600;82;21077;-31
2020/12/03 03:07:01;;;;;;;10.25;7.10;;;;;;;22.95;36.57;100487.86;1699525;83;21246;-31
2020/12/03 03:09:28;;;;;;;8.28;6.58;;;;;;;22.96;36.56;100482.00;1708815;81;21160;-31
2020/12/03 03:11:56;;;;;;;10.18;7.33;;;;;;;22.95;36.58;100490.55;1698992;83;21177;-31
2020/12/03 03:14:24;;;;;;;11.12;7.25;;;;;;;22.96;36.56;100489.59;1732936;81;21208;-31
2020/12/03 03:16:52;;;;;;;9.98;7.33;;;;;;;22.97;36.52;100488.61;1721275;82;21173;-30
2020/12/03 03:19:19;;;;;;;10.28;7.50;;;;;;;22.96;36.54;100486.91;1737213;82;21085;-31
2020/12/03 03:21:46;;;;;;;9.48;6.87;;;;;;;22.98;36.56;100495.70;1712968;82;21223;-31
2020/12/03 03:24:14;;;;;;;11.57;7.22;;;;;;;22.97;36.56;100489.95;1712878;82;21163;-31
2020/12/03 03:26:43;;;;;;;11.03;7.80;;;;;;;22.98;36.55;100479.60;1740316;81;21220;-30
2020/12/03 03:29:10;;;;;;;11.90;8.25;;;;;;;22.99;36.50;100480.45;1742325;81;21208;-32
2020/12/03 03:31:38;;;;;;;9.70;7.10;;;;;;;22.99;36.51;100489.34;1736686;81;21144;-30
2020/12/03 03:34:05;;;;;;;9.75;6.97;;;;;;;22.99;36.58;100478.61;1687148;82;21158;-30
2020/12/03 03:36:33;;;;;;;14.03;7.30;;;;;;;22.99;36.58;100485.33;1756265;81;21202;-30
2020/12/03 03:39:01;;;;;;;9.65;8.10;;;;;;;23.00;36.55;100487.55;1759286;81;21158;-31
2020/12/03 03:41:28;;;;;;;8.70;7.05;;;;;;;22.99;36.54;100486.66;1773966;80;21167;-31
2020/12/03 03:43:55;;;;;;;12.13;8.05;;;;;;;23.00;36.50;100487.55;1769000;80;21166;-30
2020/12/03 03:46:23;;;;;;;10.88;8.23;;;;;;;23.00;36.52;100484.86;1768940;81;21165;-31
2020/12/03 03:48:50;;;;;;;10.20;7.80;;;;;;;23.00;36.51;100485.71;1743413;81;21139;-32
2020/12/03 03:51:18;;;;;;;10.25;7.62;;;;;;;22.98;36.43;100487.66;1768683;80;21131;-30
2020/12/03 03:53:45;;;;;;;10.25;7.70;;;;;;;22.97;36.39;100484.58;1769179;80;21186;-30
2020/12/03 03:56:13;;;;;;;12.55;7.75;;;;;;;22.98;36.43;100487.66;1778621;80;21123;-30
2020/12/03 03:58:40;;;;;;;11.85;8.15;;;;;;;22.98;36.43;100487.66;1779829;80;22267;-30
2020/12/03 04:01:07;;;;;;;11.88;8.00;;;;;;;22.96;36.39;100484.23;1701881;82;21641;-31
2020/12/03 04:03:35;;;;;;;9.83;7.62;;;;;;;22.97;36.42;100484.58;1711026;82;21213;-31
2020/12/03 04:06:03;;;;;;;9.63;7.87;;;;;;;22.97;36.43;100491.30;1735122;82;21132;-31
2020/12/03 04:08:30;;;;;;;10.85;7.92;;;;;;;22.96;36.49;100482.89;1701491;84;21200;-31
2020/12/03 04:10:58;;;;;;;11.90;8.40;;;;;;;22.97;36.52;100485.08;1730317;83;21636;-31
2020/12/03 04:13:26;;;;;;;10.13;7.55;;;;;;;22.96;36.50;100478.86;1701477;84;21597;-30
2020/12/03 04:15:54;;;;;;;10.55;7.35;;;;;;;22.96;36.49;100481.55;1717071;81;21518;-30
2020/12/03 04:18:27;;;;;;;13.80;8.80;;;;;;;22.96;36.51;100480.20;1728661;81;21153;-31
2020/12/03 04:21:01;;;;;;;10.60;8.30;;;;;;;22.96;36.47;100482.00;1728827;81;21645;-31
2020/12/03 04:23:28;;;;;;;11.15;8.38;;;;;;;22.95;36.44;100480.30;1731044;81;22248;-31
2020/12/03 04:25:56;;;;;;;10.23;7.92;;;;;;;22.94;36.44;100475.40;1704576;84;21173;-31
2020/12/03 04:28:24;;;;;;;11.57;8.50;;;;;;;22.93;36.52;100479.07;1721436;81;21677;-31
2020/12/03 04:30:55;;;;;;;10.40;8.10;;;;;;;22.93;36.46;100475.51;1735930;81;21486;-30
2020/12/03 04:33:22;;;;;;;12.05;8.80;;;;;;;22.93;36.46;100477.73;1684862;83;21221;-30
2020/12/03 04:35:49;;;;;;;10.40;8.38;;;;;;;22.91;36.41;100476.95;1695850;83;22204;-30
2020/12/03 04:38:17;;;;;;;11.95;8.85;;;;;;;22.92;36.52;100477.34;1704236;83;21124;-30
2020/12/03 04:40:46;;;;;;;12.00;8.83;;;;;;;22.92;36.52;100480.03;1690114;82;21244;-30
2020/12/03 04:43:31;;;;;;;15.55;8.93;;;;;;;22.91;36.34;100485.01;1692537;82;21124;-30
2020/12/03 04:46:40;;;;;;;11.65;8.38;;;;;;;22.92;36.22;100488.08;1695949;83;21170;-30
2020/12/03 04:49:24;;;;;;;11.35;8.55;;;;;;;22.91;36.19;100497.08;1718526;82;22374;-30
2020/12/03 04:52:30;;;;;;;13.18;8.40;;;;;;;22.90;36.09;100498.06;1696598;83;21095;-30
2020/12/03 04:55:09;;;;;;;11.63;8.90;;;;;;;22.88;35.96;100500.01;1719464;81;21168;-30
2020/12/03 04:58:01;;;;;;;12.45;9.03;;;;;;;22.87;35.87;100498.28;1716886;82;21155;-30
2020/12/03 05:00:51;;;;;;;10.82;8.88;;;;;;;22.85;35.78;100494.85;1699421;84;21172;-30
2020/12/03 05:04:04;;;;;;;12.33;8.58;;;;;;;22.82;35.79;100487.86;1662301;84;22172;-29
2020/12/03 05:06:58;;;;;;;13.08;8.45;;;;;;;22.81;35.77;100484.83;1714310;81;21230;-31
2020/12/03 05:09:46;;;;;;;11.93;8.80;;;;;;;22.80;35.73;100488.46;1669950;84;21213;-31
2020/12/03 05:12:25;;;;;;;12.95;8.78;;;;;;;22.78;35.83;100486.38;1672294;82;21099;-31
2020/12/03 05:18:16;;;;;;;11.47;9.50;;;;;;;22.81;36.04;100483.48;1821055;77;27869;-30
2020/12/03 05:20:50;;;;;;;12.50;8.67;;;;;;;22.79;36.10;100487.22;1794811;78;21191;-30
2020/12/03 05:23:24;;;;;;;17.23;9.10;;;;;;;22.83;36.06;100488.74;1778340;79;21866;-32
2020/12/03 05:25:54;;;;;;;11.12;8.70;;;;;;;22.83;36.16;100490.09;1786233;80;21623;-31
2020/12/03 05:28:56;;;;;;;11.57;8.58;;;;;;;22.83;36.18;100486.06;1760793;80;21192;-30
2020/12/03 05:31:36;;;;;;;12.58;8.93;;;;;;;22.83;36.26;100491.42;1782974;80;21182;-31
2020/12/03 05:34:24;;;;;;;13.00;8.53;;;;;;;22.84;36.28;100490.44;1730507;81;21585;-30
2020/12/03 05:37:06;;;;;;;9.70;8.23;;;;;;;22.84;36.32;100495.80;1756887;81;22415;-30
2020/12/03 05:39:44;;;;;;;12.58;8.73;;;;;;;22.84;36.42;100501.17;1708473;81;21156;-30
2020/12/03 05:42:15;;;;;;;12.85;8.60;;;;;;;22.82;36.42;100493.23;1731565;81;21183;-31
2020/12/03 05:44:48;;;;;;;10.90;8.38;;;;;;;22.83;36.46;100500.81;1731809;81;21175;-31
2020/12/03 05:47:24;;;;;;;11.80;8.03;;;;;;;22.84;36.50;100502.52;1732851;81;21133;-31
2020/12/03 05:50:00;;;;;;;12.13;8.35;;;;;;;22.84;36.57;100495.80;1731788;81;21155;-31
2020/12/03 05:52:28;;;;;;;10.65;8.00;;;;;;;22.84;36.57;100502.52;1731394;81;21530;-31
2020/12/03 05:55:01;;;;;;;12.00;8.30;;;;;;;22.85;36.54;100504.25;1743422;80;21565;-31
2020/12/03 05:57:41;;;;;;;10.68;8.00;;;;;;;22.85;36.61;100504.25;1759617;80;21667;-30
2020/12/03 06:00:17;;;;;;;12.55;8.30;;;;;;;22.86;36.56;100511.31;1756902;81;21128;-31
2020/12/03 06:03:01;;;;;;;10.55;8.65;;;;;;;22.86;36.63;100509.97;1753692;81;21945;-31
2020/12/03 06:05:52;;;;;;;12.30;8.00;;;;;;;22.85;36.57;100509.61;1716578;82;21135;-30
2020/12/03 06:08:38;;;;;;;10.53;8.10;;;;;;;22.84;36.60;100507.88;1760690;81;21027;-30
2020/12/03 06:11:21;;;;;;;;;;;;;;;22.84;36.60;100504.34;1746207;80;21609;-30
2020/12/03 06:14:28;;;;;;;11.43;8.45;;;;;;;22.83;36.72;100498.13;1753713;81;20591;-31
2020/12/03 06:17:24;;;;;;;13.28;7.75;;;;;;;22.82;36.77;100503.11;1775150;79;21657;-30
2020/12/03 06:20:09;;;;;;;18.52;8.33;;;;;;;22.82;36.96;100504.45;1791960;78;21634;-32
2020/12/03 06:22:57;;;;;;;10.72;7.83;;;;;;;22.79;37.20;100503.32;1779691;78;21070;-33
2020/12/03 06:25:52;;;;;;;20.48;8.05;;;;;;;22.75;37.38;100494.63;1756468;80;21185;-33
2020/12/03 06:28:37;;;;;;;16.45;8.55;;;;;;;22.73;37.42;100501.06;1756564;80;21147;-32
2020/12/03 06:31:21;;;;;;;15.18;8.18;;;;;;;22.69;37.44;100498.23;1768421;79;21497;-34
2020/12/03 06:34:21;;;;;;;18.10;8.38;;;;;;;22.67;37.37;100501.02;1744064;82;21130;-31
2020/12/03 06:36:58;;;;;;;16.07;8.50;;;;;;;22.65;37.38;100503.45;1722947;82;21209;-33
2020/12/03 06:39:44;;;;;;;18.95;8.53;;;;;;;22.63;37.37;100507.08;1725891;82;21162;-32
2020/12/03 06:42:36;;;;;;;;;;;;;;;22.62;37.37;100508.53;1724287;82;21519;-33
2020/12/03 06:45:39;;;;;;;10.35;7.35;;;;;;;22.62;37.37;100504.50;1666498;84;21287;-32
2020/12/03 06:48:39;;;;;;;17.50;8.30;;;;;;;22.63;37.26;100501.72;1837212;77;22763;-31
2020/12/03 06:51:52;;;;;;;11.93;8.28;;;;;;;22.59;37.22;100504.25;1785871;78;20941;-31
2020/12/03 06:54:53;;;;;;;15.50;7.70;;;;;;;22.59;37.19;100508.73;1768479;78;21255;-31
2020/12/03 06:57:48;;;;;;;16.30;9.00;;;;;;;22.58;37.09;100508.37;1794711;78;26284;-31
2020/12/03 07:01:01;;;;;;;18.48;8.40;;;;;;;22.57;37.11;100511.52;1822288;78;21121;-33
2020/12/03 07:04:16;;;;;;;31.30;14.83;;;;;;;22.56;37.02;100513.84;1793722;79;21222;-33
2020/12/03 07:07:29;;;;;;;25.23;13.03;;;;;;;22.46;35.11;100514.10;1778874;79;20957;-33
2020/12/03 07:10:35;;;;;;;20.55;11.78;;;;;;;22.39;36.02;100508.76;1789989;80;21175;-33
2020/12/03 07:13:51;;;;;;;27.17;12.15;;;;;;;22.38;36.43;100512.42;1738428;79;21162;-32
2020/12/03 07:16:26;;;;;;;22.50;11.00;;;;;;;22.39;36.59;100518.14;1776139;79;21170;-33
2020/12/03 07:19:29;;;;;;;22.93;11.38;;;;;;;22.43;36.85;100518.33;1766162;79;21100;-33
2020/12/03 07:22:16;;;;;;;19.67;11.20;;;;;;;22.50;36.99;100522.79;1836539;77;22019;-33
2020/12/03 07:24:47;;;;;;;21.60;10.25;;;;;;;22.48;37.08;100523.35;1831695;77;21113;-35
2020/12/03 07:27:48;;;;;;;21.00;10.28;;;;;;;22.50;37.21;100524.13;1802499;78;22037;-34
2020/12/03 07:30:42;;;;;;;21.00;9.83;;;;;;;22.53;37.32;100519.91;1782554;78;21677;-34
2020/12/03 07:33:16;;;;;;;25.43;10.58;;;;;;;22.56;37.38;100525.03;1779439;78;21132;-33
2020/12/03 07:36:21;;;;;;;15.90;10.32;;;;;;;22.57;37.43;100519.56;1834953;77;21097;-33
2020/12/03 07:39:18;;;;;;;18.62;10.53;;;;;;;22.60;37.52;100523.38;1787417;77;21192;-32
2020/12/03 07:41:57;;;;;;;22.40;10.95;;;;;;;22.63;37.63;100527.20;1794246;78;21173;-33
2020/12/03 07:44:50;;;;;;;15.85;9.35;;;;;;;22.65;37.74;100525.75;1764577;78;21549;-34
2020/12/03 07:47:33;;;;;;;19.73;10.23;;;;;;;22.68;37.84;100532.71;1806951;77;21109;-33
2020/12/03 07:50:26;;;;;;;21.00;10.30;;;;;;;22.69;37.86;100523.22;1797484;78;21601;-34
2020/12/03 07:53:24;;;;;;;15.10;9.68;;;;;;;22.72;37.94;100526.19;1727815;79;22227;-33
2020/12/03 07:55:53;;;;;;;19.48;8.98;;;;;;;22.75;37.94;100520.61;1728607;79;21841;-31
2020/12/03 07:58:40;;;;;;;18.12;10.05;;;;;;;22.77;37.91;100525.38;1783896;79;21145;-33
2020/12/03 08:01:12;;;;;;;17.65;9.60;;;;;;;22.80;37.96;100523.83;1775816;79;21589;-33
2020/12/03 08:03:54;;;;;;;18.75;9.08;;;;;;;22.81;37.98;100521.05;1792442;79;21151;-32
2020/12/03 08:06:40;;;;;;;17.07;8.98;;;;;;;22.83;37.95;100516.91;1801745;78;21119;-32
2020/12/03 08:09:21;;;;;;;20.80;9.68;;;;;;;22.85;38.03;100516.32;1731614;79;21116;-33
2020/12/03 08:12:02;;;;;;;18.30;8.78;;;;;;;22.88;38.08;100520.13;1740706;79;21577;-33
2020/12/03 08:14:46;;;;;;;18.50;9.43;;;;;;;22.88;38.08;100520.13;1772546;79;21132;-31
2020/12/03 08:17:26;;;;;;;16.57;8.60;;;;;;;22.91;38.08;100519.89;1750828;79;21484;-32
2020/12/03 08:20:10;;;;;;;21.05;9.80;;;;;;;22.92;37.97;100520.28;1817880;79;21081;-36
2020/12/03 08:22:42;;;;;;;21.68;10.45;;;;;;;22.93;37.55;100526.50;1790495;79;21602;-32
2020/12/03 08:25:21;;;;;;;25.85;10.75;;;;;;;22.93;37.47;100521.13;1759933;79;21173;-32
2020/12/03 08:28:01;;;;;;;19.00;10.00;;;;;;;22.90;37.41;100520.88;1752855;80;21197;-32
2020/12/03 08:30:35;;;;;;;19.07;9.30;;;;;;;22.88;37.45;100512.09;1791289;78;21176;-33
2020/12/03 08:33:15;;;;;;;19.48;9.83;;;;;;;22.86;37.48;100511.31;1789135;79;21113;-32
2020/12/03 08:35:59;;;;;;;17.40;9.80;;;;;;;22.85;37.46;100511.41;1795951;79;23574;-32
2020/12/03 08:38:39;;;;;;;17.20;10.25;;;;;;;22.83;37.45;100508.87;1775836;80;21197;-31
2020/12/03 08:41:09;;;;;;;92.97;33.92;;;;;;;22.82;36.56;100508.48;1793749;79;21133;-32
2020/12/03 08:43:42;;;;;;;43.80;21.93;;;;;;;22.68;32.99;100505.42;1805950;78;21179;-32
2020/12/03 08:48:49;;;;;;;33.25;17.42;;;;;;;22.15;29.75;100497.86;1774019;79;22781;-33
2020/12/03 08:51:18;;;;;;;48.20;18.05;;;;;;;21.87;30.63;100488.51;1688372;83;21117;-32
2020/12/03 08:53:49;;;;;;;39.08;17.30;;;;;;;21.75;31.67;100487.11;1707510;81;21128;-32
2020/12/03 08:56:24;;;;;;;35.20;15.28;;;;;;;21.74;32.85;100476.89;1738261;80;21647;-33
2020/12/03 08:59:07;;;;;;;34.08;16.90;;;;;;;21.79;33.51;100473.91;1791775;79;21139;-32
2020/12/03 09:01:51;;;;;;;37.10;15.90;;;;;;;21.84;34.03;100475.31;1706247;82;21134;-32
2020/12/03 09:04:25;;;;;;;30.92;16.00;;;;;;;21.92;34.35;100472.59;1728743;82;21080;-32
2020/12/03 09:06:53;;;;;;;33.98;14.43;;;;;;;21.99;34.67;100464.52;1695206;83;21368;-32
2020/12/03 09:09:22;;;;;;;34.18;15.30;;;;;;;22.04;34.91;100461.04;1713239;82;21656;-33
2020/12/03 09:11:50;;;;;;;31.37;14.98;;;;;;;22.10;35.09;100457.95;1708165;82;21093;-34
2020/12/03 09:14:17;;;;;;;25.52;13.70;;;;;;;22.16;35.24;100454.02;1732807;82;21172;-34
2020/12/03 09:16:49;;;;;;;25.48;14.43;;;;;;;22.20;35.43;100456.36;1737517;82;21124;-33
2020/12/03 09:19:27;;;;;;;26.57;12.75;;;;;;;22.24;35.55;100453.87;1708222;82;22039;-32
2020/12/03 09:21:54;;;;;;;27.52;13.65;;;;;;;22.29;35.69;100452.71;1737470;82;21160;-33
2020/12/03 09:24:24;;;;;;;21.15;12.43;;;;;;;22.34;35.87;100450.57;1737522;82;21160;-33
2020/12/03 09:26:54;;;;;;;25.60;12.75;;;;;;;22.37;36.04;100454.39;1708172;82;21211;-33
2020/12/03 09:29:22;;;;;;;30.62;13.13;;;;;;;22.42;36.16;100453.09;1708676;82;21151;-36
2020/12/03 09:31:56;;;;;;;35.98;16.70;;;;;;;22.44;34.03;100455.67;1732978;81;21304;-32
2020/12/03 09:34:23;;;;;;;30.27;15.05;;;;;;;22.31;34.51;100444.08;1737445;82;21152;-32
2020/12/03 09:36:52;;;;;;;26.30;15.28;;;;;;;22.29;34.92;100437.47;1708749;82;21211;-32
2020/12/03 09:39:19;;;;;;;31.52;14.78;;;;;;;22.30;35.22;100437.86;1708292;82;21192;-32
2020/12/03 09:41:51;;;;;;;29.65;15.15;;;;;;;22.33;35.26;100440.83;1734116;82;21132;-31
2020/12/03 09:44:20;;;;;;;25.23;16.20;;;;;;;22.35;35.09;100437.06;1723168;82;21139;-32
2020/12/03 09:46:48;;;;;;;28.83;14.33;;;;;;;22.39;34.80;100436.36;1723012;81;21151;-32
2020/12/03 09:49:16;;;;;;;21.85;13.93;;;;;;;22.41;34.82;100442.50;1712600;82;21195;-32
2020/12/03 09:51:46;;;;;;;25.95;14.38;;;;;;;22.42;34.62;100449.56;1736314;82;21148;-30
2020/12/03 09:54:14;;;;;;;28.07;13.80;;;;;;;22.44;34.67;100448.97;1712917;82;21164;-31
2020/12/03 09:56:45;;;;;;;28.45;15.23;;;;;;;22.45;34.85;100446.18;1740484;82;21597;-31
2020/12/03 09:59:14;;;;;;;25.40;13.70;;;;;;;22.49;34.87;100445.97;1712350;82;21203;-30
2020/12/03 10:02:09;;;;;;;25.23;14.10;;;;;;;22.51;34.90;100446.25;1711327;82;21195;-31
2020/12/03 10:04:57;;;;;;;24.15;13.50;;;;;;;22.53;34.94;100437.61;1712407;82;21199;-31
2020/12/03 10:08:06;;;;;;;24.25;13.32;;;;;;;22.55;35.00;100442.88;1712266;82;21600;-31
2020/12/03 10:10:45;;;;;;;26.82;12.85;;;;;;;22.57;35.02;100443.61;1739857;82;21335;-30
2020/12/03 10:13:52;;;;;;;27.07;13.45;;;;;;;22.58;35.03;100431.44;1739694;82;21496;-31
2020/12/03 10:16:21;;;;;;;24.98;13.08;;;;;;;22.58;34.96;100427.42;1692518;82;21068;-31
2020/12/03 10:18:50;;;;;;;22.90;13.40;;;;;;;22.60;34.87;100424.14;1712313;82;21207;-32
2020/12/03 10:21:27;;;;;;;17.92;11.57;;;;;;;22.61;34.78;100424.52;1707550;82;21192;-32
2020/12/03 10:24:18;;;;;;;24.95;11.12;;;;;;;22.61;34.92;100424.52;1737056;82;23643;-31
2020/12/03 10:27:09;;;;;;;29.20;12.40;;;;;;;22.60;34.98;100428.66;1712828;81;21115;-31
2020/12/03 10:29:54;;;;;;;21.77;11.18;;;;;;;22.55;35.15;100437.02;1707486;82;21131;-31
2020/12/03 10:32:22;;;;;;;18.75;10.40;;;;;;;22.54;35.36;100435.28;1693500;82;21180;-31
2020/12/03 10:34:50;;;;;;;26.57;11.48;;;;;;;22.53;35.61;100432.25;1707842;82;21129;-31
2020/12/03 10:37:34;;;;;;;20.12;11.85;;;;;;;22.52;35.68;100425.16;1736973;82;21374;-31
2020/12/03 10:40:19;;;;;;;23.25;13.62;;;;;;;22.54;35.79;100427.24;1664904;82;21143;-34
2020/12/03 10:42:52;;;;;;;20.52;12.90;;;;;;;22.49;35.09;100425.37;1736911;82;21175;-34
2020/12/03 10:45:25;;;;;;;23.67;12.98;;;;;;;22.49;35.10;100423.18;1703687;82;21729;-33
2020/12/03 10:47:57;;;;;;;20.70;12.55;;;;;;;22.50;35.42;100423.08;1686872;82;21139;-33
2020/12/03 10:50:50;;;;;;;27.00;13.38;;;;;;;22.51;35.40;100416.76;1725600;82;21173;-32
2020/12/03 10:53:27;;;;;;;26.73;13.40;;;;;;;22.52;35.49;100417.60;1701088;82;21147;-31
2020/12/03 10:56:06;;;;;;;21.50;12.95;;;;;;;22.53;35.35;100413.47;1750188;80;21137;-31
2020/12/03 11:01:27;;;;;;;21.05;12.28;;;;;;;22.61;35.28;100400.38;1830743;78;22683;-32
2020/12/03 11:04:04;;;;;;;20.27;12.23;;;;;;;22.59;35.19;100398.30;1753994;80;21563;-32
2020/12/03 11:06:32;;;;;;;20.02;12.75;;;;;;;22.60;35.21;100399.16;1758186;79;21129;-33
2020/12/03 11:09:01;;;;;;;20.80;13.58;;;;;;;22.62;35.12;100394.03;1773840;80;21167;-33
2020/12/03 11:11:37;;;;;;;24.05;13.38;;;;;;;22.63;35.05;100390.89;1753343;80;21586;-33
2020/12/03 11:14:10;;;;;;;25.55;15.40;;;;;;;22.65;34.91;100392.97;1793698;77;21157;-32
2020/12/03 11:16:42;;;;;;;23.87;15.35;;;;;;;22.67;34.58;100386.16;1791153;79;21117;-33
2020/12/03 11:19:15;;;;;;;24.75;15.55;;;;;;;22.67;34.65;100386.16;1737230;79;21232;-32
2020/12/03 11:21:48;;;;;;;23.27;14.23;;;;;;;22.67;34.45;100386.16;1797782;78;21584;-31
2020/12/03 11:24:35;;;;;;;28.17;14.15;;;;;;;22.68;34.58;100401.27;1782359;79;21140;-31
2020/12/03 11:27:04;;;;;;;24.20;13.83;;;;;;;22.68;34.50;100403.48;1793652;78;21092;-31
2020/12/03 11:29:36;;;;;;;23.27;13.30;;;;;;;22.69;34.70;100397.63;1789363;78;21163;-32
2020/12/03 11:32:03;;;;;;;18.82;13.72;;;;;;;22.69;34.63;100399.82;1768170;80;22080;-31
2020/12/03 11:34:36;;;;;;;19.73;13.08;;;;;;;22.70;34.66;100393.99;1761776;80;21576;-31
2020/12/03 11:37:06;;;;;;;20.62;12.47;;;;;;;22.71;34.75;100393.01;1780250;80;21243;-32
2020/12/03 11:39:34;;;;;;;19.75;11.33;;;;;;;22.70;34.89;100391.31;1793529;79;21660;-31
2020/12/03 11:47:58;;;;;;;18.42;11.70;;;;;;;22.77;34.66;100381.84;1837179;77;22674;-30
2020/12/03 11:50:16;;;;;;;18.98;12.73;;;;;;;22.75;34.63;100375.74;1777282;79;21205;-31
2020/12/03 11:52:44;;;;;;;19.87;12.43;;;;;;;22.74;34.69;100376.20;1784975;80;21232;-30
2020/12/03 11:55:23;;;;;;;18.90;12.05;;;;;;;22.75;34.78;100380.61;1786101;80;21107;-30
2020/12/03 11:57:51;;;;;;;25.08;12.35;;;;;;;22.76;34.80;100388.17;1786112;80;21575;-30
2020/12/03 12:00:21;;;;;;;20.00;12.10;;;;;;;22.77;34.77;100384.53;1756791;81;21017;-31
2020/12/03 12:02:51;;;;;;;18.98;11.88;;;;;;;22.77;34.87;100381.84;1728848;81;21636;-31
2020/12/03 12:05:31;;;;;;;14.30;10.43;;;;;;;22.77;34.85;100383.19;1753619;81;22127;-33
2020/12/03 12:08:10;;;;;;;13.50;10.80;;;;;;;22.78;34.86;100391.62;1751855;81;21188;-32
2020/12/03 12:10:35;;;;;;;17.60;10.75;;;;;;;22.76;34.88;100381.46;1769752;80;21173;-31
2020/12/03 12:13:00;;;;;;;20.50;10.25;;;;;;;22.74;34.87;100381.57;1758299;80;21162;-30